sensor_id;sensor_type;location;lat;lon;timestamp;temperature;humidity
23347;DHT22;36852;45.466;11.066;2023-07-16T00:00:25;29.30;99.90
23347;DHT22;36852;45.466;11.066;2023-07-16T00:02:54;29.30;99.90
23347;DHT22;36852;45.466;11.066;2023-07-16T00:05:22;29.30;99.90
23347;DHT22;36852;45.466;11.066;2023-07-16T00:07:54;29.30;99.90
23347;DHT22;36852;45.466;11.066;2023-07-16T00:10:22;29.20;99.90
23347;DHT22;36852;45.466;11.066;2023-07-16T00:12:52;29.20;99.90
23347;DHT22;36852;45.466;11.066;2023-07-16T00:15:20;29.20;99.90
23347;DHT22;36852;45.466;11.066;2023-07-16T00:17:49;29.20;99.90
23347;DHT22;36852;45.466;11.066;2023-07-16T00:20:17;29.20;99.90
23347;DHT22;36852;45.466;11.066;2023-07-16T00:22:46;29.20;99.90
23347;DHT22;36852;45.466;11.066;2023-07-16T00:25:14;29.20;99.90
23347;DHT22;36852;45.466;11.066;2023-07-16T00:27:42;29.20;99.90
23347;DHT22;36852;45.466;11.066;2023-07-16T00:30:12;29.20;99.90
23347;DHT22;36852;45.466;11.066;2023-07-16T00:32:41;29.10;99.90
23347;DHT22;36852;45.466;11.066;2023-07-16T00:35:09;29.10;99.90
23347;DHT22;36852;45.466;11.066;2023-07-16T00:37:37;29.10;99.90
23347;DHT22;36852;45.466;11.066;2023-07-16T00:40:07;29.10;99.90
23347;DHT22;36852;45.466;11.066;2023-07-16T00:42:36;29.10;99.90
23347;DHT22;36852;45.466;11.066;2023-07-16T00:45:08;29.10;99.90
23347;DHT22;36852;45.466;11.066;2023-07-16T00:47:36;29.00;99.90
23347;DHT22;36852;45.466;11.066;2023-07-16T00:50:05;29.00;99.90
23347;DHT22;36852;45.466;11.066;2023-07-16T00:52:34;29.00;99.90
23347;DHT22;36852;45.466;11.066;2023-07-16T00:55:06;29.00;99.90
23347;DHT22;36852;45.466;11.066;2023-07-16T00:57:35;29.00;99.90
23347;DHT22;36852;45.466;11.066;2023-07-16T01:00:04;29.00;99.90
23347;DHT22;36852;45.466;11.066;2023-07-16T01:02:32;28.90;99.90
23347;DHT22;36852;45.466;11.066;2023-07-16T01:05:00;28.90;99.90
23347;DHT22;36852;45.466;11.066;2023-07-16T01:07:30;28.90;99.90
23347;DHT22;36852;45.466;11.066;2023-07-16T01:10:00;28.90;99.90
23347;DHT22;36852;45.466;11.066;2023-07-16T01:12:34;28.90;99.90
23347;DHT22;36852;45.466;11.066;2023-07-16T01:15:04;28.90;99.90
23347;DHT22;36852;45.466;11.066;2023-07-16T01:17:32;28.90;99.90
23347;DHT22;36852;45.466;11.066;2023-07-16T01:20:00;28.90;99.90
23347;DHT22;36852;45.466;11.066;2023-07-16T01:22:35;28.90;99.90
23347;DHT22;36852;45.466;11.066;2023-07-16T01:25:34;28.90;99.90
23347;DHT22;36852;45.466;11.066;2023-07-16T01:30:39;28.90;99.90
23347;DHT22;36852;45.466;11.066;2023-07-16T01:33:08;28.90;99.90
23347;DHT22;36852;45.466;11.066;2023-07-16T01:35:41;28.80;99.90
23347;DHT22;36852;45.466;11.066;2023-07-16T01:38:11;28.80;99.90
23347;DHT22;36852;45.466;11.066;2023-07-16T01:40:42;28.80;99.90
23347;DHT22;36852;45.466;11.066;2023-07-16T01:43:11;28.80;99.90
23347;DHT22;36852;45.466;11.066;2023-07-16T01:45:39;28.80;99.90
23347;DHT22;36852;45.466;11.066;2023-07-16T01:48:30;28.80;99.90
23347;DHT22;36852;45.466;11.066;2023-07-16T01:50:59;28.70;99.90
23347;DHT22;36852;45.466;11.066;2023-07-16T01:53:27;28.70;99.90
23347;DHT22;36852;45.466;11.066;2023-07-16T01:55:58;28.70;99.90
23347;DHT22;36852;45.466;11.066;2023-07-16T01:58:28;28.70;99.90
23347;DHT22;36852;45.466;11.066;2023-07-16T02:00:56;28.70;99.90
23347;DHT22;36852;45.466;11.066;2023-07-16T02:03:24;28.70;99.90
23347;DHT22;36852;45.466;11.066;2023-07-16T02:05:53;28.70;99.90
23347;DHT22;36852;45.466;11.066;2023-07-16T02:08:21;28.70;99.90
23347;DHT22;36852;45.466;11.066;2023-07-16T02:10:49;28.60;99.90
23347;DHT22;36852;45.466;11.066;2023-07-16T02:13:17;28.60;99.90
23347;DHT22;36852;45.466;11.066;2023-07-16T02:15:46;28.60;99.90
23347;DHT22;36852;45.466;11.066;2023-07-16T02:18:14;28.60;99.90
23347;DHT22;36852;45.466;11.066;2023-07-16T02:20:45;28.60;99.90
23347;DHT22;36852;45.466;11.066;2023-07-16T02:23:13;28.60;99.90
23347;DHT22;36852;45.466;11.066;2023-07-16T02:25:46;28.60;99.90
23347;DHT22;36852;45.466;11.066;2023-07-16T02:28:16;28.60;99.90
23347;DHT22;36852;45.466;11.066;2023-07-16T02:30:44;28.60;99.90
23347;DHT22;36852;45.466;11.066;2023-07-16T02:33:18;28.60;99.90
23347;DHT22;36852;45.466;11.066;2023-07-16T02:35:49;28.60;99.90
23347;DHT22;36852;45.466;11.066;2023-07-16T02:38:19;28.60;99.90
23347;DHT22;36852;45.466;11.066;2023-07-16T02:40:48;28.60;99.90
23347;DHT22;36852;45.466;11.066;2023-07-16T02:43:16;28.50;99.90
23347;DHT22;36852;45.466;11.066;2023-07-16T02:45:45;28.50;99.90
23347;DHT22;36852;45.466;11.066;2023-07-16T02:48:13;28.50;99.90
23347;DHT22;36852;45.466;11.066;2023-07-16T02:50:44;28.50;99.90
23347;DHT22;36852;45.466;11.066;2023-07-16T02:53:12;28.40;99.90
23347;DHT22;36852;45.466;11.066;2023-07-16T02:55:40;28.40;99.90
23347;DHT22;36852;45.466;11.066;2023-07-16T02:58:08;28.40;99.90
23347;DHT22;36852;45.466;11.066;2023-07-16T03:00:36;28.40;99.90
23347;DHT22;36852;45.466;11.066;2023-07-16T03:03:04;28.40;99.90
23347;DHT22;36852;45.466;11.066;2023-07-16T03:05:33;28.40;99.90
23347;DHT22;36852;45.466;11.066;2023-07-16T03:08:04;28.40;99.90
23347;DHT22;36852;45.466;11.066;2023-07-16T03:10:33;28.30;99.90
23347;DHT22;36852;45.466;11.066;2023-07-16T03:13:01;28.30;99.90
23347;DHT22;36852;45.466;11.066;2023-07-16T03:15:29;28.30;99.90
23347;DHT22;36852;45.466;11.066;2023-07-16T03:17:58;28.30;99.90
23347;DHT22;36852;45.466;11.066;2023-07-16T03:20:26;28.30;99.90
23347;DHT22;36852;45.466;11.066;2023-07-16T03:22:54;28.30;99.90
23347;DHT22;36852;45.466;11.066;2023-07-16T03:25:23;28.30;99.90
23347;DHT22;36852;45.466;11.066;2023-07-16T03:27:51;28.30;99.90
23347;DHT22;36852;45.466;11.066;2023-07-16T03:30:19;28.30;99.90
23347;DHT22;36852;45.466;11.066;2023-07-16T03:32:51;28.30;99.90
23347;DHT22;36852;45.466;11.066;2023-07-16T03:35:19;28.30;99.90
23347;DHT22;36852;45.466;11.066;2023-07-16T03:37:50;28.30;99.90
23347;DHT22;36852;45.466;11.066;2023-07-16T03:40:23;28.30;99.90
23347;DHT22;36852;45.466;11.066;2023-07-16T03:42:52;28.30;99.90
23347;DHT22;36852;45.466;11.066;2023-07-16T03:45:20;28.20;99.90
23347;DHT22;36852;45.466;11.066;2023-07-16T03:47:50;28.20;99.90
23347;DHT22;36852;45.466;11.066;2023-07-16T03:50:19;28.20;99.90
23347;DHT22;36852;45.466;11.066;2023-07-16T03:52:48;28.20;99.90
23347;DHT22;36852;45.466;11.066;2023-07-16T03:55:16;28.20;99.90
23347;DHT22;36852;45.466;11.066;2023-07-16T03:57:44;28.20;99.90
23347;DHT22;36852;45.466;11.066;2023-07-16T04:00:14;28.20;99.90
23347;DHT22;36852;45.466;11.066;2023-07-16T04:02:43;28.20;99.90
23347;DHT22;36852;45.466;11.066;2023-07-16T04:05:13;28.20;99.90
23347;DHT22;36852;45.466;11.066;2023-07-16T04:07:42;28.20;99.90
23347;DHT22;36852;45.466;11.066;2023-07-16T04:10:09;28.10;99.90
23347;DHT22;36852;45.466;11.066;2023-07-16T04:12:37;28.10;99.90
23347;DHT22;36852;45.466;11.066;2023-07-16T04:15:08;28.10;99.90
23347;DHT22;36852;45.466;11.066;2023-07-16T04:17:37;28.10;99.90
23347;DHT22;36852;45.466;11.066;2023-07-16T04:20:07;28.10;99.90
23347;DHT22;36852;45.466;11.066;2023-07-16T04:22:36;28.10;99.90
23347;DHT22;36852;45.466;11.066;2023-07-16T04:25:05;28.10;99.90
23347;DHT22;36852;45.466;11.066;2023-07-16T04:27:33;28.10;99.90
23347;DHT22;36852;45.466;11.066;2023-07-16T04:30:01;28.10;99.90
23347;DHT22;36852;45.466;11.066;2023-07-16T04:32:32;28.10;99.90
23347;DHT22;36852;45.466;11.066;2023-07-16T04:35:02;28.10;99.90
23347;DHT22;36852;45.466;11.066;2023-07-16T04:37:31;28.10;99.90
23347;DHT22;36852;45.466;11.066;2023-07-16T04:39:59;28.10;99.90
23347;DHT22;36852;45.466;11.066;2023-07-16T04:42:27;28.10;99.90
23347;DHT22;36852;45.466;11.066;2023-07-16T04:44:56;28.20;99.90
23347;DHT22;36852;45.466;11.066;2023-07-16T04:47:24;28.20;99.90
23347;DHT22;36852;45.466;11.066;2023-07-16T04:49:52;28.20;99.90
23347;DHT22;36852;45.466;11.066;2023-07-16T04:52:26;28.20;99.90
23347;DHT22;36852;45.466;11.066;2023-07-16T04:54:54;28.20;99.90
23347;DHT22;36852;45.466;11.066;2023-07-16T04:57:23;28.20;99.90
23347;DHT22;36852;45.466;11.066;2023-07-16T04:59:51;28.20;99.90
23347;DHT22;36852;45.466;11.066;2023-07-16T05:02:21;28.20;99.90
23347;DHT22;36852;45.466;11.066;2023-07-16T05:04:49;28.20;99.90
23347;DHT22;36852;45.466;11.066;2023-07-16T05:07:17;28.20;99.90
23347;DHT22;36852;45.466;11.066;2023-07-16T05:09:47;28.30;99.90
23347;DHT22;36852;45.466;11.066;2023-07-16T05:12:15;28.40;99.90
23347;DHT22;36852;45.466;11.066;2023-07-16T05:14:46;28.40;99.90
23347;DHT22;36852;45.466;11.066;2023-07-16T05:17:14;28.50;99.90
23347;DHT22;36852;45.466;11.066;2023-07-16T05:19:43;28.50;99.90
23347;DHT22;36852;45.466;11.066;2023-07-16T05:22:12;28.60;99.90
23347;DHT22;36852;45.466;11.066;2023-07-16T05:24:43;28.60;99.90
23347;DHT22;36852;45.466;11.066;2023-07-16T05:27:13;28.60;99.90
23347;DHT22;36852;45.466;11.066;2023-07-16T05:29:47;28.60;99.90
23347;DHT22;36852;45.466;11.066;2023-07-16T05:32:15;28.70;99.90
23347;DHT22;36852;45.466;11.066;2023-07-16T05:34:52;28.70;99.90
23347;DHT22;36852;45.466;11.066;2023-07-16T05:37:21;28.80;99.90
23347;DHT22;36852;45.466;11.066;2023-07-16T05:39:49;28.80;99.90
23347;DHT22;36852;45.466;11.066;2023-07-16T05:42:17;28.80;99.90
23347;DHT22;36852;45.466;11.066;2023-07-16T05:44:47;28.80;99.90
23347;DHT22;36852;45.466;11.066;2023-07-16T05:47:16;28.90;99.90
23347;DHT22;36852;45.466;11.066;2023-07-16T05:49:43;28.90;99.90
23347;DHT22;36852;45.466;11.066;2023-07-16T05:52:12;28.90;99.90
23347;DHT22;36852;45.466;11.066;2023-07-16T05:54:40;28.90;99.90
23347;DHT22;36852;45.466;11.066;2023-07-16T05:57:09;28.90;99.90
23347;DHT22;36852;45.466;11.066;2023-07-16T05:59:37;29.00;99.90
23347;DHT22;36852;45.466;11.066;2023-07-16T06:02:06;29.00;99.90
23347;DHT22;36852;45.466;11.066;2023-07-16T06:04:36;29.10;99.90
23347;DHT22;36852;45.466;11.066;2023-07-16T06:07:05;29.10;99.90
23347;DHT22;36852;45.466;11.066;2023-07-16T06:09:34;29.10;99.90
23347;DHT22;36852;45.466;11.066;2023-07-16T06:12:03;29.10;99.90
23347;DHT22;36852;45.466;11.066;2023-07-16T06:14:31;29.10;99.90
23347;DHT22;36852;45.466;11.066;2023-07-16T06:17:01;29.10;99.90
23347;DHT22;36852;45.466;11.066;2023-07-16T06:19:29;29.20;99.90
23347;DHT22;36852;45.466;11.066;2023-07-16T06:21:57;29.20;99.90
23347;DHT22;36852;45.466;11.066;2023-07-16T06:24:26;29.20;99.90
23347;DHT22;36852;45.466;11.066;2023-07-16T06:26:55;29.20;99.90
23347;DHT22;36852;45.466;11.066;2023-07-16T06:29:23;29.30;99.90
23347;DHT22;36852;45.466;11.066;2023-07-16T06:32:00;29.30;99.90
23347;DHT22;36852;45.466;11.066;2023-07-16T06:34:26;29.40;99.90
23347;DHT22;36852;45.466;11.066;2023-07-16T06:36:57;29.40;99.90
23347;DHT22;36852;45.466;11.066;2023-07-16T06:39:26;29.40;99.90
23347;DHT22;36852;45.466;11.066;2023-07-16T06:41:56;29.50;99.90
23347;DHT22;36852;45.466;11.066;2023-07-16T06:44:25;29.50;99.90
23347;DHT22;36852;45.466;11.066;2023-07-16T06:46:53;29.50;99.90
23347;DHT22;36852;45.466;11.066;2023-07-16T06:49:22;29.60;99.90
23347;DHT22;36852;45.466;11.066;2023-07-16T06:51:51;29.60;99.90
23347;DHT22;36852;45.466;11.066;2023-07-16T06:54:18;29.60;99.90
23347;DHT22;36852;45.466;11.066;2023-07-16T06:56:47;29.60;99.90
23347;DHT22;36852;45.466;11.066;2023-07-16T06:59:15;29.70;99.90
23347;DHT22;36852;45.466;11.066;2023-07-16T07:01:44;29.80;99.90
23347;DHT22;36852;45.466;11.066;2023-07-16T07:04:12;29.80;99.90
23347;DHT22;36852;45.466;11.066;2023-07-16T07:06:39;29.90;99.90
23347;DHT22;36852;45.466;11.066;2023-07-16T07:09:08;29.90;99.90
23347;DHT22;36852;45.466;11.066;2023-07-16T07:11:37;29.90;99.90
23347;DHT22;36852;45.466;11.066;2023-07-16T07:14:08;30.00;99.90
23347;DHT22;36852;45.466;11.066;2023-07-16T07:16:40;29.90;99.90
23347;DHT22;36852;45.466;11.066;2023-07-16T07:19:08;30.00;99.90
23347;DHT22;36852;45.466;11.066;2023-07-16T07:21:36;30.00;99.90
23347;DHT22;36852;45.466;11.066;2023-07-16T07:24:04;30.00;99.90
23347;DHT22;36852;45.466;11.066;2023-07-16T07:26:33;30.00;99.90
23347;DHT22;36852;45.466;11.066;2023-07-16T07:29:01;30.10;99.90
23347;DHT22;36852;45.466;11.066;2023-07-16T07:31:29;30.10;99.90
23347;DHT22;36852;45.466;11.066;2023-07-16T07:33:57;30.10;99.90
23347;DHT22;36852;45.466;11.066;2023-07-16T07:36:26;30.20;99.90
23347;DHT22;36852;45.466;11.066;2023-07-16T07:38:54;30.20;99.90
23347;DHT22;36852;45.466;11.066;2023-07-16T07:41:22;30.30;99.90
23347;DHT22;36852;45.466;11.066;2023-07-16T07:43:50;30.30;99.90
23347;DHT22;36852;45.466;11.066;2023-07-16T07:46:22;30.30;99.90
23347;DHT22;36852;45.466;11.066;2023-07-16T07:48:50;30.40;99.90
23347;DHT22;36852;45.466;11.066;2023-07-16T07:51:17;30.40;99.90
23347;DHT22;36852;45.466;11.066;2023-07-16T07:53:46;30.40;99.90
23347;DHT22;36852;45.466;11.066;2023-07-16T07:56:14;30.50;99.90
23347;DHT22;36852;45.466;11.066;2023-07-16T07:58:42;30.50;99.90
23347;DHT22;36852;45.466;11.066;2023-07-16T08:01:10;30.50;99.90
23347;DHT22;36852;45.466;11.066;2023-07-16T08:03:42;30.50;99.90
23347;DHT22;36852;45.466;11.066;2023-07-16T08:06:13;30.50;99.90
23347;DHT22;36852;45.466;11.066;2023-07-16T08:08:42;30.60;99.90
23347;DHT22;36852;45.466;11.066;2023-07-16T08:11:11;30.60;99.90
23347;DHT22;36852;45.466;11.066;2023-07-16T08:13:39;30.70;99.90
23347;DHT22;36852;45.466;11.066;2023-07-16T08:16:08;30.70;99.90
23347;DHT22;36852;45.466;11.066;2023-07-16T08:18:37;30.70;99.90
23347;DHT22;36852;45.466;11.066;2023-07-16T08:21:06;30.70;99.90
23347;DHT22;36852;45.466;11.066;2023-07-16T08:23:35;30.80;99.90
23347;DHT22;36852;45.466;11.066;2023-07-16T08:26:02;30.80;99.90
23347;DHT22;36852;45.466;11.066;2023-07-16T08:28:34;30.90;99.90
23347;DHT22;36852;45.466;11.066;2023-07-16T08:31:03;30.90;99.90
23347;DHT22;36852;45.466;11.066;2023-07-16T08:33:31;30.90;99.90
23347;DHT22;36852;45.466;11.066;2023-07-16T08:36:01;30.90;99.90
23347;DHT22;36852;45.466;11.066;2023-07-16T08:38:29;30.90;99.90
23347;DHT22;36852;45.466;11.066;2023-07-16T08:40:59;31.00;99.90
23347;DHT22;36852;45.466;11.066;2023-07-16T08:43:29;31.00;99.90
23347;DHT22;36852;45.466;11.066;2023-07-16T08:45:58;31.00;99.90
23347;DHT22;36852;45.466;11.066;2023-07-16T08:48:28;31.10;99.90
23347;DHT22;36852;45.466;11.066;2023-07-16T08:50:58;31.10;99.90
23347;DHT22;36852;45.466;11.066;2023-07-16T08:53:26;31.10;99.90
23347;DHT22;36852;45.466;11.066;2023-07-16T08:55:55;31.10;99.90
23347;DHT22;36852;45.466;11.066;2023-07-16T08:58:24;31.20;99.90
23347;DHT22;36852;45.466;11.066;2023-07-16T09:00:53;31.30;99.90
23347;DHT22;36852;45.466;11.066;2023-07-16T09:03:22;31.30;99.90
23347;DHT22;36852;45.466;11.066;2023-07-16T09:05:50;31.30;99.90
23347;DHT22;36852;45.466;11.066;2023-07-16T09:08:18;31.30;99.90
23347;DHT22;36852;45.466;11.066;2023-07-16T09:10:55;31.30;99.90
23347;DHT22;36852;45.466;11.066;2023-07-16T09:13:26;31.30;99.90
23347;DHT22;36852;45.466;11.066;2023-07-16T09:15:56;31.30;99.90
23347;DHT22;36852;45.466;11.066;2023-07-16T09:18:26;31.30;99.90
23347;DHT22;36852;45.466;11.066;2023-07-16T09:23:27;31.30;99.90
23347;DHT22;36852;45.466;11.066;2023-07-16T09:25:56;31.40;99.90
23347;DHT22;36852;45.466;11.066;2023-07-16T09:28:25;31.40;99.90
23347;DHT22;36852;45.466;11.066;2023-07-16T09:30:53;31.40;99.90
23347;DHT22;36852;45.466;11.066;2023-07-16T09:33:22;31.50;99.90
23347;DHT22;36852;45.466;11.066;2023-07-16T09:35:52;31.50;99.90
23347;DHT22;36852;45.466;11.066;2023-07-16T09:38:20;31.60;99.90
23347;DHT22;36852;45.466;11.066;2023-07-16T09:40:50;31.60;99.90
23347;DHT22;36852;45.466;11.066;2023-07-16T09:43:19;31.60;99.90
23347;DHT22;36852;45.466;11.066;2023-07-16T09:45:48;31.70;99.90
23347;DHT22;36852;45.466;11.066;2023-07-16T09:48:16;31.70;99.90
23347;DHT22;36852;45.466;11.066;2023-07-16T09:50:53;31.80;99.90
23347;DHT22;36852;45.466;11.066;2023-07-16T09:53:21;31.80;99.90
23347;DHT22;36852;45.466;11.066;2023-07-16T09:55:52;31.90;99.90
23347;DHT22;36852;45.466;11.066;2023-07-16T09:58:21;31.90;99.90
23347;DHT22;36852;45.466;11.066;2023-07-16T10:00:51;31.90;99.90
23347;DHT22;36852;45.466;11.066;2023-07-16T10:03:19;31.90;99.90
23347;DHT22;36852;45.466;11.066;2023-07-16T10:06:07;32.00;99.90
23347;DHT22;36852;45.466;11.066;2023-07-16T10:08:36;32.00;99.90
23347;DHT22;36852;45.466;11.066;2023-07-16T10:11:14;32.10;99.90
23347;DHT22;36852;45.466;11.066;2023-07-16T10:13:37;32.10;99.90
23347;DHT22;36852;45.466;11.066;2023-07-16T10:16:06;32.10;99.90
23347;DHT22;36852;45.466;11.066;2023-07-16T10:18:39;32.20;99.90
23347;DHT22;36852;45.466;11.066;2023-07-16T10:21:08;32.20;99.90
23347;DHT22;36852;45.466;11.066;2023-07-16T10:23:37;32.20;99.90
23347;DHT22;36852;45.466;11.066;2023-07-16T10:26:10;32.30;99.90
23347;DHT22;36852;45.466;11.066;2023-07-16T10:28:39;32.30;99.90
23347;DHT22;36852;45.466;11.066;2023-07-16T10:31:22;32.30;99.90
23347;DHT22;36852;45.466;11.066;2023-07-16T10:34:02;32.30;99.90
23347;DHT22;36852;45.466;11.066;2023-07-16T10:36:41;32.30;99.90
23347;DHT22;36852;45.466;11.066;2023-07-16T10:39:09;32.40;99.90
23347;DHT22;36852;45.466;11.066;2023-07-16T10:41:37;32.40;99.90
23347;DHT22;36852;45.466;11.066;2023-07-16T10:44:08;32.50;99.90
23347;DHT22;36852;45.466;11.066;2023-07-16T10:46:36;32.50;99.90
23347;DHT22;36852;45.466;11.066;2023-07-16T10:49:07;32.50;99.90
23347;DHT22;36852;45.466;11.066;2023-07-16T10:51:36;32.60;99.90
23347;DHT22;36852;45.466;11.066;2023-07-16T10:54:07;32.60;99.90
23347;DHT22;36852;45.466;11.066;2023-07-16T10:56:36;32.60;99.90
23347;DHT22;36852;45.466;11.066;2023-07-16T10:59:05;32.70;99.90
23347;DHT22;36852;45.466;11.066;2023-07-16T11:01:36;32.80;99.90
23347;DHT22;36852;45.466;11.066;2023-07-16T11:04:07;32.80;99.90
23347;DHT22;36852;45.466;11.066;2023-07-16T11:06:35;32.80;99.90
23347;DHT22;36852;45.466;11.066;2023-07-16T11:09:10;32.90;99.90
23347;DHT22;36852;45.466;11.066;2023-07-16T11:11:39;32.90;99.90
23347;DHT22;36852;45.466;11.066;2023-07-16T11:14:07;32.90;99.80
23347;DHT22;36852;45.466;11.066;2023-07-16T11:16:38;33.00;98.70
23347;DHT22;36852;45.466;11.066;2023-07-16T11:19:06;33.00;98.10
23347;DHT22;36852;45.466;11.066;2023-07-16T11:21:35;33.10;98.50
23347;DHT22;36852;45.466;11.066;2023-07-16T11:24:12;33.10;97.60
23347;DHT22;36852;45.466;11.066;2023-07-16T11:26:52;33.10;96.70
23347;DHT22;36852;45.466;11.066;2023-07-16T11:29:20;33.20;97.40
23347;DHT22;36852;45.466;11.066;2023-07-16T11:31:52;33.20;95.90
23347;DHT22;36852;45.466;11.066;2023-07-16T11:34:20;33.20;95.80
23347;DHT22;36852;45.466;11.066;2023-07-16T11:36:50;33.20;95.30
23347;DHT22;36852;45.466;11.066;2023-07-16T11:39:19;33.20;95.30
23347;DHT22;36852;45.466;11.066;2023-07-16T11:41:55;33.30;96.00
23347;DHT22;36852;45.466;11.066;2023-07-16T11:44:25;33.40;96.60
23347;DHT22;36852;45.466;11.066;2023-07-16T11:46:53;33.40;95.20
23347;DHT22;36852;45.466;11.066;2023-07-16T11:49:21;33.50;96.30
23347;DHT22;36852;45.466;11.066;2023-07-16T11:51:49;33.50;94.50
23347;DHT22;36852;45.466;11.066;2023-07-16T11:54:17;33.50;93.60
23347;DHT22;36852;45.466;11.066;2023-07-16T11:56:46;33.50;93.80
23347;DHT22;36852;45.466;11.066;2023-07-16T11:59:16;33.50;94.40
23347;DHT22;36852;45.466;11.066;2023-07-16T12:01:48;33.50;95.40
23347;DHT22;36852;45.466;11.066;2023-07-16T12:04:16;33.60;94.70
23347;DHT22;36852;45.466;11.066;2023-07-16T12:06:46;33.60;93.80
23347;DHT22;36852;45.466;11.066;2023-07-16T12:09:14;33.70;93.70
23347;DHT22;36852;45.466;11.066;2023-07-16T12:11:43;33.70;91.80
23347;DHT22;36852;45.466;11.066;2023-07-16T12:14:12;33.70;89.50
23347;DHT22;36852;45.466;11.066;2023-07-16T12:16:42;33.70;85.40
23347;DHT22;36852;45.466;11.066;2023-07-16T12:19:12;33.70;82.70
23347;DHT22;36852;45.466;11.066;2023-07-16T12:21:41;33.70;84.90
23347;DHT22;36852;45.466;11.066;2023-07-16T12:24:09;33.80;88.90
23347;DHT22;36852;45.466;11.066;2023-07-16T12:26:38;33.80;91.50
23347;DHT22;36852;45.466;11.066;2023-07-16T12:29:06;33.90;90.40
23347;DHT22;36852;45.466;11.066;2023-07-16T12:31:34;33.90;89.10
23347;DHT22;36852;45.466;11.066;2023-07-16T12:34:03;33.90;90.90
23347;DHT22;36852;45.466;11.066;2023-07-16T12:36:32;34.00;91.30
23347;DHT22;36852;45.466;11.066;2023-07-16T12:39:00;34.10;91.00
23347;DHT22;36852;45.466;11.066;2023-07-16T12:41:30;34.10;90.60
23347;DHT22;36852;45.466;11.066;2023-07-16T12:43:57;34.10;91.10
23347;DHT22;36852;45.466;11.066;2023-07-16T12:46:25;34.20;88.30
23347;DHT22;36852;45.466;11.066;2023-07-16T12:48:54;34.20;90.90
23347;DHT22;36852;45.466;11.066;2023-07-16T12:51:22;34.30;91.20
23347;DHT22;36852;45.466;11.066;2023-07-16T12:53:52;34.30;92.30
23347;DHT22;36852;45.466;11.066;2023-07-16T12:56:21;34.40;94.20
23347;DHT22;36852;45.466;11.066;2023-07-16T12:58:49;34.50;94.40
23347;DHT22;36852;45.466;11.066;2023-07-16T13:01:18;34.60;94.20
23347;DHT22;36852;45.466;11.066;2023-07-16T13:03:46;34.60;92.90
23347;DHT22;36852;45.466;11.066;2023-07-16T13:06:15;34.70;92.60
23347;DHT22;36852;45.466;11.066;2023-07-16T13:08:44;34.60;91.90
23347;DHT22;36852;45.466;11.066;2023-07-16T13:11:12;34.70;92.00
23347;DHT22;36852;45.466;11.066;2023-07-16T13:13:40;34.70;91.00
23347;DHT22;36852;45.466;11.066;2023-07-16T13:16:10;34.80;90.60
23347;DHT22;36852;45.466;11.066;2023-07-16T13:18:39;34.90;90.80
23347;DHT22;36852;45.466;11.066;2023-07-16T13:21:10;34.90;90.80
23347;DHT22;36852;45.466;11.066;2023-07-16T13:23:39;35.00;91.20
23347;DHT22;36852;45.466;11.066;2023-07-16T13:26:07;35.00;90.20
23347;DHT22;36852;45.466;11.066;2023-07-16T13:28:35;35.00;90.70
23347;DHT22;36852;45.466;11.066;2023-07-16T13:31:04;35.10;92.10
23347;DHT22;36852;45.466;11.066;2023-07-16T13:33:36;35.30;91.20
23347;DHT22;36852;45.466;11.066;2023-07-16T13:36:05;35.40;91.20
23347;DHT22;36852;45.466;11.066;2023-07-16T13:38:33;35.60;89.20
23347;DHT22;36852;45.466;11.066;2023-07-16T13:41:02;35.70;89.00
23347;DHT22;36852;45.466;11.066;2023-07-16T13:43:30;35.80;88.60
23347;DHT22;36852;45.466;11.066;2023-07-16T13:46:18;35.90;89.80
23347;DHT22;36852;45.466;11.066;2023-07-16T13:48:47;36.10;85.20
23347;DHT22;36852;45.466;11.066;2023-07-16T13:51:18;36.20;83.80
23347;DHT22;36852;45.466;11.066;2023-07-16T13:53:48;36.30;84.10
23347;DHT22;36852;45.466;11.066;2023-07-16T13:56:16;36.40;82.40
23347;DHT22;36852;45.466;11.066;2023-07-16T13:58:45;36.50;82.80
23347;DHT22;36852;45.466;11.066;2023-07-16T14:01:13;36.70;84.00
23347;DHT22;36852;45.466;11.066;2023-07-16T14:03:41;36.80;81.90
23347;DHT22;36852;45.466;11.066;2023-07-16T14:06:09;36.80;78.50
23347;DHT22;36852;45.466;11.066;2023-07-16T14:08:39;36.90;80.50
23347;DHT22;36852;45.466;11.066;2023-07-16T14:11:10;36.90;81.40
23347;DHT22;36852;45.466;11.066;2023-07-16T14:13:38;36.80;79.20
23347;DHT22;36852;45.466;11.066;2023-07-16T14:16:06;36.80;79.60
23347;DHT22;36852;45.466;11.066;2023-07-16T14:18:39;36.80;80.30
23347;DHT22;36852;45.466;11.066;2023-07-16T14:21:08;36.90;79.80
23347;DHT22;36852;45.466;11.066;2023-07-16T14:23:40;37.00;79.40
23347;DHT22;36852;45.466;11.066;2023-07-16T14:26:08;37.10;76.30
23347;DHT22;36852;45.466;11.066;2023-07-16T14:28:36;37.10;75.20
23347;DHT22;36852;45.466;11.066;2023-07-16T14:31:05;37.20;75.60
23347;DHT22;36852;45.466;11.066;2023-07-16T14:33:33;37.30;75.80
23347;DHT22;36852;45.466;11.066;2023-07-16T14:36:05;37.40;77.70
23347;DHT22;36852;45.466;11.066;2023-07-16T14:38:33;37.50;72.40
23347;DHT22;36852;45.466;11.066;2023-07-16T14:41:02;37.50;72.70
23347;DHT22;36852;45.466;11.066;2023-07-16T14:43:30;37.50;72.10
23347;DHT22;36852;45.466;11.066;2023-07-16T14:45:59;37.60;71.40
23347;DHT22;36852;45.466;11.066;2023-07-16T14:48:30;37.70;72.00
23347;DHT22;36852;45.466;11.066;2023-07-16T14:50:58;37.80;67.50
23347;DHT22;36852;45.466;11.066;2023-07-16T14:53:28;37.80;66.70
23347;DHT22;36852;45.466;11.066;2023-07-16T14:55:56;37.90;67.60
23347;DHT22;36852;45.466;11.066;2023-07-16T14:58:25;38.00;68.30
23347;DHT22;36852;45.466;11.066;2023-07-16T15:00:53;38.10;66.10
23347;DHT22;36852;45.466;11.066;2023-07-16T15:03:21;38.00;65.10
23347;DHT22;36852;45.466;11.066;2023-07-16T15:05:57;38.10;63.70
23347;DHT22;36852;45.466;11.066;2023-07-16T15:08:26;38.10;64.10
23347;DHT22;36852;45.466;11.066;2023-07-16T15:10:54;38.20;64.90
23347;DHT22;36852;45.466;11.066;2023-07-16T15:13:22;38.20;64.80
23347;DHT22;36852;45.466;11.066;2023-07-16T15:15:52;38.30;62.90
23347;DHT22;36852;45.466;11.066;2023-07-16T15:18:21;38.40;63.70
23347;DHT22;36852;45.466;11.066;2023-07-16T15:20:49;38.60;64.10
23347;DHT22;36852;45.466;11.066;2023-07-16T15:23:17;38.80;63.90
23347;DHT22;36852;45.466;11.066;2023-07-16T15:25:45;39.10;60.90
23347;DHT22;36852;45.466;11.066;2023-07-16T15:28:15;39.30;62.50
23347;DHT22;36852;45.466;11.066;2023-07-16T15:30:46;39.50;60.50
23347;DHT22;36852;45.466;11.066;2023-07-16T15:33:18;39.70;61.40